createdAt,value
2022-10-25T00:00:47.798Z,15.51
2022-10-25T00:01:48.101Z,15.48
2022-10-25T00:02:47.833Z,15.49
2022-10-25T00:03:47.773Z,15.42
2022-10-25T00:04:47.752Z,15.48
2022-10-25T00:05:47.765Z,15.45
2022-10-25T00:06:47.730Z,15.51
2022-10-25T00:07:47.971Z,15.48
2022-10-25T00:08:47.722Z,15.45
2022-10-25T00:09:47.700Z,15.43
2022-10-25T00:10:47.690Z,15.41
2022-10-25T00:11:47.679Z,15.42
2022-10-25T00:12:47.667Z,15.49
2022-10-25T00:13:47.669Z,15.46
2022-10-25T00:14:47.644Z,15.49
2022-10-25T00:15:47.637Z,15.48
2022-10-25T00:16:47.623Z,15.46
2022-10-25T00:17:47.941Z,15.49
2022-10-25T00:18:47.614Z,15.46
2022-10-25T00:19:47.593Z,15.48
2022-10-25T00:20:47.641Z,15.42
2022-10-25T00:21:47.588Z,15.46
2022-10-25T00:22:47.987Z,15.41
2022-10-25T00:23:47.552Z,15.49
2022-10-25T00:24:47.536Z,15.49
2022-10-25T00:25:47.527Z,15.48
2022-10-25T00:26:47.513Z,15.46
2022-10-25T00:27:47.519Z,15.42
2022-10-25T00:28:47.496Z,15.45
2022-10-25T00:29:47.484Z,15.48
2022-10-25T00:30:47.474Z,15.42
2022-10-25T00:31:47.463Z,15.49
2022-10-25T00:32:47.739Z,15.45
2022-10-25T00:33:47.440Z,15.48
2022-10-25T00:34:47.428Z,15.48
2022-10-25T00:35:47.420Z,15.41
2022-10-25T00:36:47.406Z,15.39
2022-10-25T00:37:47.432Z,15.42
2022-10-25T00:38:47.385Z,15.39
2022-10-25T00:39:47.382Z,15.28
2022-10-25T00:40:54.957Z,15.38
2022-10-25T00:41:47.354Z,15.38
2022-10-25T00:42:47.701Z,15.30
2022-10-25T00:43:47.333Z,15.38
2022-10-25T00:44:47.319Z,15.27
2022-10-25T00:45:47.344Z,15.26
2022-10-25T00:46:47.297Z,15.31
2022-10-25T00:47:47.596Z,15.35
2022-10-25T00:48:47.280Z,15.38
2022-10-25T00:49:47.267Z,15.23
2022-10-25T00:50:47.253Z,15.26
2022-10-25T00:51:47.245Z,15.26
2022-10-25T00:52:47.270Z,15.33
2022-10-25T00:53:47.240Z,15.30
2022-10-25T00:54:47.211Z,15.33
2022-10-25T00:55:47.200Z,15.31
2022-10-25T00:56:47.188Z,15.31
2022-10-25T00:57:47.491Z,15.24
2022-10-25T00:58:47.167Z,15.13
2022-10-25T00:59:47.158Z,15.20
2022-10-25T01:00:47.145Z,15.28
2022-10-25T01:01:47.228Z,15.28
2022-10-25T01:02:47.255Z,15.21
2022-10-25T01:03:47.113Z,15.21
2022-10-25T01:04:47.102Z,15.26
2022-10-25T01:05:47.093Z,15.24
2022-10-25T01:06:47.082Z,15.28
2022-10-25T01:07:47.367Z,15.28
2022-10-25T01:08:47.060Z,15.24
2022-10-25T01:09:47.069Z,15.24
2022-10-25T01:10:47.038Z,15.33
2022-10-25T01:11:47.027Z,15.27
2022-10-25T01:12:49.883Z,15.27
2022-10-25T01:13:48.009Z,15.36
2022-10-25T01:14:46.994Z,15.30
2022-10-25T01:15:46.986Z,15.39
2022-10-25T01:16:46.982Z,15.30
2022-10-25T01:17:46.965Z,15.26
2022-10-25T01:18:46.952Z,15.26
2022-10-25T01:19:46.947Z,15.26
2022-10-25T01:20:46.930Z,15.21
2022-10-25T01:21:46.935Z,15.26
2022-10-25T01:22:47.152Z,15.30
2022-10-25T01:23:46.896Z,15.33
2022-10-25T01:24:46.889Z,15.30
2022-10-25T01:25:46.949Z,15.27
2022-10-25T01:26:46.877Z,15.21
2022-10-25T01:27:46.890Z,15.21
2022-10-25T01:28:46.842Z,15.26
2022-10-25T01:29:46.832Z,15.27
2022-10-25T01:30:46.880Z,15.24
2022-10-25T01:31:46.823Z,15.26
2022-10-25T01:32:47.103Z,15.28
2022-10-25T01:33:46.786Z,15.35
2022-10-25T01:34:46.777Z,15.36
2022-10-25T01:35:46.772Z,15.42
2022-10-25T01:36:46.766Z,15.33
2022-10-25T01:37:47.022Z,15.39
2022-10-25T01:38:46.735Z,15.42
2022-10-25T01:39:46.722Z,15.48
2022-10-25T01:40:46.757Z,15.49
2022-10-25T01:41:46.737Z,15.49
2022-10-25T01:42:46.691Z,15.48
2022-10-25T01:43:46.678Z,15.57
2022-10-25T01:44:46.670Z,15.59
2022-10-25T01:45:46.770Z,15.57
2022-10-25T01:46:46.659Z,15.63
2022-10-25T01:47:46.970Z,15.49
2022-10-25T01:48:46.627Z,15.60
2022-10-25T01:49:46.625Z,15.52
2022-10-25T01:50:46.714Z,15.60
2022-10-25T01:51:46.603Z,15.52
2022-10-25T01:52:46.626Z,15.56
2022-10-25T01:53:46.571Z,15.57
2022-10-25T01:54:46.563Z,15.60
2022-10-25T01:55:46.552Z,15.54
2022-10-25T01:56:46.551Z,15.67
2022-10-25T01:57:46.753Z,15.56
2022-10-25T01:58:46.520Z,15.60
2022-10-25T01:59:46.506Z,15.59
2022-10-25T02:00:46.529Z,15.68
2022-10-25T02:01:46.500Z,15.54
2022-10-25T02:02:46.765Z,15.59
2022-10-25T02:03:46.471Z,15.70
2022-10-25T02:04:46.453Z,15.60
2022-10-25T02:05:46.444Z,15.59
2022-10-25T02:06:46.444Z,15.61
2022-10-25T02:07:46.422Z,15.66
2022-10-25T02:08:46.413Z,15.59
2022-10-25T02:09:46.399Z,15.63
2022-10-25T02:10:46.388Z,15.57
2022-10-25T02:11:46.388Z,15.63
2022-10-25T02:12:46.696Z,15.59
2022-10-25T02:13:46.372Z,15.59
2022-10-25T02:14:46.352Z,15.60
2022-10-25T02:15:46.422Z,15.61
2022-10-25T02:16:46.340Z,15.60
2022-10-25T02:17:46.326Z,15.57
2022-10-25T02:18:46.299Z,15.67
2022-10-25T02:19:46.293Z,15.61
2022-10-25T02:20:46.951Z,15.64
2022-10-25T02:21:46.279Z,15.68
2022-10-25T02:22:46.591Z,15.60
2022-10-25T02:23:46.250Z,15.64
2022-10-25T02:24:46.237Z,15.70
2022-10-25T02:25:46.225Z,15.60
2022-10-25T02:26:46.295Z,15.70
2022-10-25T02:27:46.569Z,15.64
2022-10-25T02:28:46.218Z,15.64
2022-10-25T02:29:46.206Z,15.67
2022-10-25T02:30:46.172Z,15.68
2022-10-25T02:31:46.171Z,15.68
2022-10-25T02:32:46.151Z,15.79
2022-10-25T02:33:46.140Z,15.74
2022-10-25T02:34:46.128Z,15.82
2022-10-25T02:35:46.116Z,15.70
2022-10-25T02:36:46.117Z,15.72
2022-10-25T02:37:46.377Z,15.76
2022-10-25T02:38:46.088Z,15.76
2022-10-25T02:39:46.076Z,15.81
2022-10-25T02:40:46.070Z,15.75
2022-10-25T02:41:46.063Z,15.81
2022-10-25T02:42:46.042Z,15.76
2022-10-25T02:43:46.037Z,15.76
2022-10-25T02:44:46.022Z,15.81
2022-10-25T02:45:46.076Z,15.84
2022-10-25T02:46:46.011Z,15.85
2022-10-25T02:47:46.349Z,15.70
2022-10-25T02:48:45.978Z,15.79
2022-10-25T02:49:45.966Z,15.75
2022-10-25T02:50:45.956Z,15.75
2022-10-25T02:51:46.015Z,15.68
2022-10-25T02:52:46.452Z,15.72
2022-10-25T02:53:45.937Z,15.74
2022-10-25T02:54:45.912Z,15.81
2022-10-25T02:55:45.904Z,15.67
2022-10-25T02:56:45.903Z,15.75
2022-10-25T02:57:45.882Z,15.76
2022-10-25T02:58:45.869Z,15.82
2022-10-25T02:59:45.859Z,15.76
2022-10-25T03:00:45.989Z,15.76
2022-10-25T03:01:45.923Z,15.76
2022-10-25T03:02:46.186Z,15.74
2022-10-25T03:03:45.812Z,15.86
2022-10-25T03:04:45.805Z,15.85
2022-10-25T03:05:45.791Z,15.82
2022-10-25T03:06:45.795Z,15.79
2022-10-25T03:07:45.769Z,15.82
2022-10-25T03:08:45.765Z,15.85
2022-10-25T03:09:45.750Z,15.86
2022-10-25T03:10:45.739Z,15.82
2022-10-25T03:11:45.740Z,15.70
2022-10-25T03:12:46.029Z,15.81
2022-10-25T03:13:45.706Z,15.76
2022-10-25T03:14:45.698Z,15.79
2022-10-25T03:15:45.692Z,15.82
2022-10-25T03:16:45.686Z,15.76
2022-10-25T03:17:46.065Z,15.75
2022-10-25T03:18:45.662Z,15.82
2022-10-25T03:19:45.641Z,15.74
2022-10-25T03:20:45.635Z,15.84
2022-10-25T03:21:45.629Z,15.85
2022-10-25T03:22:45.609Z,15.89
2022-10-25T03:23:45.615Z,15.70
2022-10-25T03:24:45.610Z,15.78
2022-10-25T03:25:45.599Z,15.75
2022-10-25T03:26:45.579Z,15.76
2022-10-25T03:27:45.914Z,15.79
2022-10-25T03:28:45.547Z,15.86
2022-10-25T03:29:45.534Z,15.76
2022-10-25T03:30:45.546Z,15.82
2022-10-25T03:31:45.526Z,15.76
2022-10-25T03:32:45.505Z,15.81
2022-10-25T03:33:45.514Z,15.74
2022-10-25T03:34:45.482Z,15.70
2022-10-25T03:35:45.511Z,15.74
2022-10-25T03:36:45.492Z,15.78
2022-10-25T03:37:45.715Z,15.67
2022-10-25T03:38:45.435Z,15.76
2022-10-25T03:39:45.426Z,15.84
2022-10-25T03:40:45.432Z,15.74
2022-10-25T03:41:45.403Z,15.75
2022-10-25T03:42:45.417Z,15.75
2022-10-25T03:43:45.382Z,15.78
2022-10-25T03:44:45.373Z,15.84
2022-10-25T03:45:45.374Z,15.68
2022-10-25T03:46:45.353Z,15.75
2022-10-25T03:47:45.633Z,15.68
2022-10-25T03:48:45.343Z,15.74
2022-10-25T03:49:45.338Z,15.72
2022-10-25T03:50:45.323Z,15.81
2022-10-25T03:51:45.300Z,15.68
2022-10-25T03:52:45.287Z,15.68
2022-10-25T03:53:45.274Z,15.75
2022-10-25T03:54:45.292Z,15.82
2022-10-25T03:55:45.350Z,15.72
2022-10-25T03:56:45.243Z,15.68
2022-10-25T03:57:45.582Z,15.70
2022-10-25T03:58:45.222Z,15.81
2022-10-25T03:59:45.238Z,15.74
2022-10-25T04:00:45.262Z,15.72
2022-10-25T04:01:45.305Z,15.76
2022-10-25T04:02:45.220Z,15.76
2022-10-25T04:03:45.174Z,15.68
2022-10-25T04:04:45.158Z,15.68
2022-10-25T04:05:45.162Z,15.70
2022-10-25T04:06:45.153Z,15.70
2022-10-25T04:07:45.515Z,15.63
2022-10-25T04:08:45.115Z,15.66
2022-10-25T04:09:45.102Z,15.64
2022-10-25T04:10:45.093Z,15.67
2022-10-25T04:11:45.092Z,15.59
2022-10-25T04:12:45.095Z,15.66
2022-10-25T04:13:45.057Z,15.63
2022-10-25T04:14:45.049Z,15.68
2022-10-25T04:15:45.041Z,15.64
2022-10-25T04:16:45.049Z,15.61
2022-10-25T04:17:45.330Z,15.67
2022-10-25T04:18:45.006Z,15.68
2022-10-25T04:19:44.993Z,15.61
2022-10-25T04:20:45.069Z,15.67
2022-10-25T04:21:45.004Z,15.72
2022-10-25T04:22:44.982Z,15.68
2022-10-25T04:23:44.949Z,15.78
2022-10-25T04:24:44.949Z,15.72
2022-10-25T04:25:44.930Z,15.74
2022-10-25T04:26:44.933Z,15.72
2022-10-25T04:27:45.224Z,15.75
2022-10-25T04:28:44.897Z,15.68
2022-10-25T04:29:44.886Z,15.81
2022-10-25T04:30:44.878Z,15.78
2022-10-25T04:31:44.873Z,15.86
2022-10-25T04:32:45.243Z,15.67
2022-10-25T04:33:48.067Z,15.79
2022-10-25T04:34:44.834Z,15.84
2022-10-25T04:35:44.857Z,15.67
2022-10-25T04:36:44.820Z,15.85
2022-10-25T04:37:44.817Z,15.72
2022-10-25T04:38:44.795Z,15.79
2022-10-25T04:39:44.778Z,15.74
2022-10-25T04:40:44.771Z,15.76
2022-10-25T04:41:44.768Z,15.74
2022-10-25T04:42:45.155Z,15.82
2022-10-25T04:43:44.736Z,15.74
2022-10-25T04:44:44.726Z,15.76
2022-10-25T04:45:44.715Z,15.82
2022-10-25T04:46:47.785Z,15.81
2022-10-25T04:47:44.692Z,15.79
2022-10-25T04:48:44.682Z,15.76
2022-10-25T04:49:44.669Z,15.81
2022-10-25T04:50:44.660Z,15.75
2022-10-25T04:51:44.732Z,15.79
2022-10-25T04:52:44.905Z,15.79
2022-10-25T04:53:44.648Z,15.72
2022-10-25T04:54:44.616Z,15.70
2022-10-25T04:55:44.651Z,15.79
2022-10-25T04:56:44.607Z,15.67
2022-10-25T04:57:44.587Z,15.74
2022-10-25T04:58:44.573Z,15.72
2022-10-25T04:59:44.576Z,15.74
2022-10-25T05:00:44.552Z,15.78
2022-10-25T05:01:44.675Z,15.68
2022-10-25T05:02:44.825Z,15.63
2022-10-25T05:03:44.518Z,15.70
2022-10-25T05:04:44.508Z,15.61
2022-10-25T05:05:44.565Z,15.64
2022-10-25T05:06:44.501Z,15.61
2022-10-25T05:07:44.476Z,15.59
2022-10-25T05:08:44.465Z,15.59
2022-10-25T05:09:47.243Z,15.64
2022-10-25T05:10:44.442Z,15.66
2022-10-25T05:11:44.449Z,15.60
2022-10-25T05:12:44.610Z,15.63
2022-10-25T05:13:44.417Z,15.60
2022-10-25T05:14:44.401Z,15.61
2022-10-25T05:15:44.405Z,15.59
2022-10-25T05:16:44.383Z,15.51
2022-10-25T05:17:44.374Z,15.64
2022-10-25T05:18:44.354Z,15.63
2022-10-25T05:19:44.346Z,15.57
2022-10-25T05:20:44.348Z,15.60
2022-10-25T05:21:44.326Z,15.51
2022-10-25T05:22:44.476Z,15.56
2022-10-25T05:23:44.304Z,15.49
2022-10-25T05:24:44.309Z,15.52
2022-10-25T05:25:44.313Z,15.46
2022-10-25T05:26:44.269Z,15.51
2022-10-25T05:27:44.261Z,15.48
2022-10-25T05:28:44.260Z,15.48
2022-10-25T05:29:44.240Z,15.49
2022-10-25T05:30:44.238Z,15.59
2022-10-25T05:31:44.218Z,15.54
2022-10-25T05:32:44.340Z,15.43
2022-10-25T05:33:44.215Z,15.46
2022-10-25T05:34:44.183Z,15.48
2022-10-25T05:35:44.196Z,15.42
2022-10-25T05:36:44.163Z,15.48
2022-10-25T05:37:44.154Z,15.45
2022-10-25T05:38:44.165Z,15.49
2022-10-25T05:39:44.129Z,15.43
2022-10-25T05:40:44.118Z,15.41
2022-10-25T05:41:44.138Z,15.42
2022-10-25T05:42:44.344Z,15.43
2022-10-25T05:43:44.087Z,15.43
2022-10-25T05:44:44.077Z,15.41
2022-10-25T05:45:44.068Z,15.42
2022-10-25T05:46:44.063Z,15.45
2022-10-25T05:47:44.044Z,15.46
2022-10-25T05:48:48.510Z,15.49
2022-10-25T05:49:44.030Z,15.48
2022-10-25T05:50:44.022Z,15.48
2022-10-25T05:51:44.012Z,15.45
2022-10-25T05:52:44.156Z,15.48
2022-10-25T05:53:43.983Z,15.51
2022-10-25T05:54:43.968Z,15.52
2022-10-25T05:55:43.963Z,15.43
2022-10-25T05:56:43.954Z,15.54
2022-10-25T05:57:44.001Z,15.46
2022-10-25T05:58:43.924Z,15.46
2022-10-25T05:59:43.915Z,15.57
2022-10-25T06:00:43.904Z,15.52
2022-10-25T06:01:44.198Z,15.57
2022-10-25T06:02:43.938Z,15.49
2022-10-25T06:03:43.879Z,15.52
2022-10-25T06:04:43.860Z,15.52
2022-10-25T06:05:43.855Z,15.59
2022-10-25T06:06:43.850Z,15.57
2022-10-25T06:07:43.828Z,15.60
2022-10-25T06:08:43.817Z,15.59
2022-10-25T06:09:43.857Z,15.59
2022-10-25T06:10:43.864Z,15.64
2022-10-25T06:11:43.797Z,15.61
2022-10-25T06:12:43.822Z,15.63
2022-10-25T06:13:43.813Z,15.72
2022-10-25T06:14:43.751Z,15.63
2022-10-25T06:15:43.742Z,15.63
2022-10-25T06:16:43.755Z,15.61
2022-10-25T06:17:43.723Z,15.63
2022-10-25T06:18:43.707Z,15.67
2022-10-25T06:19:43.703Z,15.76
2022-10-25T06:20:43.689Z,15.68
2022-10-25T06:21:43.687Z,15.68
2022-10-25T06:22:43.814Z,15.72
2022-10-25T06:23:43.659Z,15.72
2022-10-25T06:24:43.666Z,15.70
2022-10-25T06:25:43.634Z,15.64
2022-10-25T06:26:43.633Z,15.79
2022-10-25T06:27:43.613Z,15.72
2022-10-25T06:28:43.602Z,15.74
2022-10-25T06:29:43.608Z,15.72
2022-10-25T06:30:43.579Z,15.74
2022-10-25T06:31:43.585Z,15.74
2022-10-25T06:32:43.611Z,15.72
2022-10-25T06:33:43.547Z,15.74
2022-10-25T06:34:43.535Z,15.76
2022-10-25T06:35:43.548Z,15.74
2022-10-25T06:36:43.534Z,15.79
2022-10-25T06:37:43.504Z,15.99
2022-10-25T06:38:43.504Z,15.92
2022-10-25T06:39:43.484Z,15.92
2022-10-25T06:40:51.118Z,15.88
2022-10-25T06:41:43.475Z,15.92
2022-10-25T06:42:43.626Z,15.96
2022-10-25T06:43:43.450Z,15.96
2022-10-25T06:44:43.429Z,15.96
2022-10-25T06:45:43.439Z,15.94
2022-10-25T06:47:15.516Z,16.01
2022-10-25T06:47:44.399Z,15.99
2022-10-25T06:48:43.385Z,16.00
2022-10-25T06:49:43.374Z,15.97
2022-10-25T06:50:43.500Z,15.97
2022-10-25T06:51:43.382Z,16.06
2022-10-25T06:52:43.362Z,16.00
2022-10-25T06:53:43.331Z,15.96
2022-10-25T06:54:43.323Z,16.03
2022-10-25T06:55:43.310Z,15.93
2022-10-25T06:56:43.309Z,16.01
2022-10-25T06:57:43.288Z,15.97
2022-10-25T06:58:43.276Z,16.01
2022-10-25T06:59:43.268Z,15.99
2022-10-25T07:00:45.987Z,16.11
2022-10-25T07:01:43.396Z,16.06
2022-10-25T07:02:43.232Z,16.04
2022-10-25T07:03:43.222Z,16.15
2022-10-25T07:04:43.210Z,16.22
2022-10-25T07:05:43.199Z,16.16
2022-10-25T07:06:43.200Z,16.14
2022-10-25T07:07:43.183Z,16.22
2022-10-25T07:08:43.180Z,16.22
2022-10-25T07:09:43.158Z,16.14
2022-10-25T07:10:43.145Z,16.14
2022-10-25T07:11:43.173Z,16.20
2022-10-25T07:12:43.121Z,16.23
2022-10-25T07:13:43.117Z,16.25
2022-10-25T07:14:43.107Z,16.38
2022-10-25T07:15:43.090Z,16.38
2022-10-25T07:16:43.085Z,16.35
2022-10-25T07:17:43.086Z,16.35
2022-10-25T07:18:43.058Z,16.41
2022-10-25T07:19:43.047Z,16.34
2022-10-25T07:20:43.036Z,16.42
2022-10-25T07:21:43.040Z,16.52
2022-10-25T07:22:43.014Z,16.40
2022-10-25T07:23:43.016Z,16.41
2022-10-25T07:24:42.991Z,16.59
2022-10-25T07:25:42.981Z,16.63
2022-10-25T07:26:42.979Z,16.78
2022-10-25T07:27:42.958Z,16.83
2022-10-25T07:28:42.946Z,16.90
2022-10-25T07:29:42.953Z,17.06
2022-10-25T07:30:42.924Z,17.23
2022-10-25T07:31:42.926Z,17.41
2022-10-25T07:32:42.947Z,17.62
2022-10-25T07:33:42.913Z,17.71
2022-10-25T07:34:42.881Z,17.70
2022-10-25T07:35:52.471Z,17.70
2022-10-25T07:36:43.873Z,17.64
2022-10-25T07:37:42.851Z,17.55
2022-10-25T07:38:42.853Z,17.59
2022-10-25T07:39:42.828Z,17.64
2022-10-25T07:40:42.816Z,17.53
2022-10-25T07:41:42.819Z,17.57
2022-10-25T07:42:42.799Z,17.51
2022-10-25T07:43:42.831Z,17.41
2022-10-25T07:44:42.806Z,17.30
2022-10-25T07:45:42.766Z,17.28
2022-10-25T07:46:42.766Z,17.29
2022-10-25T07:47:42.744Z,17.43
2022-10-25T07:48:42.730Z,17.57
2022-10-25T07:49:42.735Z,17.66
2022-10-25T07:50:42.724Z,17.78
2022-10-25T07:51:42.711Z,17.84
2022-10-25T07:52:42.708Z,18.12
2022-10-25T07:53:42.683Z,18.47
2022-10-25T07:55:42.657Z,18.87
2022-10-25T07:56:42.661Z,18.87
2022-10-25T07:57:42.636Z,18.74
2022-10-25T07:58:42.624Z,18.67
2022-10-25T07:59:42.612Z,18.57
2022-10-25T08:00:42.603Z,18.55
2022-10-25T08:01:42.668Z,18.40
2022-10-25T08:02:42.599Z,18.31
2022-10-25T08:03:42.599Z,18.28
2022-10-25T08:04:42.561Z,18.22
2022-10-25T08:05:42.567Z,18.17
2022-10-25T08:06:42.552Z,18.04
2022-10-25T08:07:42.530Z,17.95
2022-10-25T08:08:42.522Z,18.13
2022-10-25T08:09:42.508Z,17.94
2022-10-25T08:10:42.498Z,17.89
2022-10-25T08:11:42.499Z,17.84
2022-10-25T08:12:42.531Z,17.81
2022-10-25T08:13:42.466Z,17.82
2022-10-25T08:14:43.325Z,17.76
2022-10-25T08:15:42.443Z,17.69
2022-10-25T08:16:42.448Z,17.59
2022-10-25T08:17:42.461Z,17.66
2022-10-25T08:18:42.413Z,17.57
2022-10-25T08:19:42.404Z,17.59
2022-10-25T08:21:01.145Z,17.59
2022-10-25T08:21:43.416Z,17.59
2022-10-25T08:22:42.375Z,17.54
2022-10-25T08:23:42.365Z,17.57
2022-10-25T08:24:42.349Z,17.44
2022-10-25T08:25:42.369Z,17.53
2022-10-25T08:26:42.342Z,17.41
2022-10-25T08:27:42.318Z,17.32
2022-10-25T08:28:42.305Z,17.26
2022-10-25T08:29:42.294Z,17.23
2022-10-25T08:30:42.284Z,17.26
2022-10-25T08:31:42.315Z,17.23
2022-10-25T08:32:42.299Z,17.08
2022-10-25T08:33:42.272Z,17.14
2022-10-25T08:34:42.240Z,17.14
2022-10-25T08:35:42.226Z,17.13
2022-10-25T08:36:42.230Z,17.07
2022-10-25T08:37:42.222Z,17.11
2022-10-25T08:38:42.196Z,16.96
2022-10-25T08:39:42.184Z,16.96
2022-10-25T08:40:42.255Z,16.95
2022-10-25T08:41:42.171Z,16.93
2022-10-25T08:42:42.153Z,17.03
2022-10-25T08:43:42.139Z,16.99
2022-10-25T08:44:42.132Z,16.99
2022-10-25T08:45:43.807Z,16.99
2022-10-25T08:46:42.117Z,16.96
2022-10-25T08:47:42.096Z,16.99
2022-10-25T08:48:42.087Z,16.88
2022-10-25T08:49:42.074Z,16.93
2022-10-25T08:50:42.087Z,16.86
2022-10-25T08:51:42.061Z,16.92
2022-10-25T08:52:42.045Z,16.98
2022-10-25T08:53:42.114Z,17.07
2022-10-25T08:54:42.022Z,16.99
2022-10-25T08:55:58.813Z,16.99
2022-10-25T08:56:56.997Z,17.08
2022-10-25T08:57:42.988Z,17.03
2022-10-25T08:58:41.978Z,17.06
2022-10-25T08:59:41.981Z,17.11
2022-10-25T09:00:41.997Z,17.15
2022-10-25T09:01:42.039Z,17.03
2022-10-25T09:02:41.937Z,17.14
2022-10-25T09:03:41.926Z,17.43
2022-10-25T09:04:41.915Z,17.62
2022-10-25T09:05:41.902Z,17.70
2022-10-25T09:06:41.960Z,17.64
2022-10-25T09:07:42.794Z,17.66
2022-10-25T09:08:41.871Z,17.57
2022-10-25T09:09:41.875Z,17.55
2022-10-25T09:10:41.852Z,17.55
2022-10-25T09:11:41.845Z,17.62
2022-10-25T09:12:41.828Z,17.54
2022-10-25T09:13:41.817Z,17.62
2022-10-25T09:14:41.806Z,17.57
2022-10-25T09:15:43.137Z,17.57
2022-10-25T09:16:41.796Z,17.41
2022-10-25T09:17:41.774Z,17.44
2022-10-25T09:18:41.766Z,17.40
2022-10-25T09:19:41.753Z,17.43
2022-10-25T09:20:41.741Z,17.46
2022-10-25T09:21:41.740Z,17.43
2022-10-25T09:22:41.719Z,17.55
2022-10-25T09:23:41.711Z,17.50
2022-10-25T09:24:41.702Z,17.57
2022-10-25T09:25:41.704Z,17.59
2022-10-25T09:26:41.687Z,17.57
2022-10-25T09:27:41.668Z,17.63
2022-10-25T09:28:41.682Z,17.51
2022-10-25T09:29:41.643Z,17.55
2022-10-25T09:30:41.656Z,17.63
2022-10-25T09:31:41.624Z,17.71
2022-10-25T09:32:41.623Z,18.09
2022-10-25T09:33:41.601Z,18.15
2022-10-25T09:34:41.591Z,18.22
2022-10-25T09:35:41.585Z,18.25
2022-10-25T09:36:41.570Z,18.29
2022-10-25T09:37:41.570Z,18.57
2022-10-25T09:38:41.548Z,18.87
2022-10-25T09:39:41.536Z,19.29
2022-10-25T09:40:45.159Z,19.61
2022-10-25T09:41:42.532Z,19.94
2022-10-25T09:42:41.518Z,20.09
2022-10-25T09:43:41.493Z,20.43
2022-10-25T09:44:41.491Z,20.65
2022-10-25T09:45:42.136Z,20.95
2022-10-25T09:46:41.595Z,21.14
2022-10-25T09:47:41.455Z,21.23
2022-10-25T09:48:41.440Z,21.39
2022-10-25T09:49:41.428Z,21.27
2022-10-25T09:50:41.422Z,21.26
2022-10-25T09:51:41.440Z,21.17
2022-10-25T09:52:41.397Z,20.93
2022-10-25T09:53:41.387Z,20.95
2022-10-25T09:54:41.379Z,21.04
2022-10-25T09:55:41.363Z,20.91
2022-10-25T09:56:41.368Z,21.06
2022-10-25T09:57:41.359Z,21.16
2022-10-25T09:58:41.334Z,21.21
2022-10-25T09:59:41.362Z,21.39
2022-10-25T10:00:41.310Z,21.21
2022-10-25T10:01:41.437Z,21.04
2022-10-25T10:02:41.416Z,20.84
2022-10-25T10:03:41.291Z,20.54
2022-10-25T10:04:41.272Z,20.31
2022-10-25T10:05:41.258Z,20.05
2022-10-25T10:06:41.259Z,19.90
2022-10-25T10:07:41.237Z,19.66
2022-10-25T10:08:41.229Z,19.57
2022-10-25T10:09:45.698Z,19.47
2022-10-25T10:10:41.205Z,19.29
2022-10-25T10:11:41.203Z,19.20
2022-10-25T10:12:41.184Z,19.11
2022-10-25T10:13:41.191Z,18.95
2022-10-25T10:14:41.169Z,18.92
2022-10-25T10:15:41.151Z,18.92
2022-10-25T10:16:41.150Z,18.86
2022-10-25T10:17:41.130Z,18.84
2022-10-25T10:18:41.118Z,18.84
2022-10-25T10:19:41.106Z,18.73
2022-10-25T10:20:41.095Z,18.72
2022-10-25T10:21:41.094Z,18.72
2022-10-25T10:22:41.122Z,18.74
2022-10-25T10:23:41.064Z,18.59
2022-10-25T10:24:41.076Z,18.68
2022-10-25T10:25:41.040Z,18.52
2022-10-25T10:26:41.039Z,18.47
2022-10-25T10:27:41.017Z,18.39
2022-10-25T10:28:41.014Z,18.33
2022-10-25T10:29:41.028Z,18.24
2022-10-25T10:30:40.989Z,18.24
2022-10-25T10:31:40.988Z,18.29
2022-10-25T10:33:40.954Z,18.15
2022-10-25T10:34:40.943Z,18.07
2022-10-25T10:35:40.932Z,17.95
2022-10-25T10:36:40.932Z,17.91
2022-10-25T10:37:40.913Z,17.89
2022-10-25T10:38:40.904Z,17.79
2022-10-25T10:39:40.891Z,17.79
2022-10-25T10:40:40.882Z,17.78
2022-10-25T10:41:40.883Z,17.76
2022-10-25T10:42:40.873Z,17.76
2022-10-25T10:43:40.872Z,17.64
2022-10-25T10:44:40.842Z,17.66
2022-10-25T10:45:40.880Z,17.79
2022-10-25T10:46:40.876Z,17.70
2022-10-25T10:47:40.806Z,17.69
2022-10-25T10:48:42.908Z,17.76
2022-10-25T10:49:40.783Z,17.79
2022-10-25T10:50:44.950Z,17.76
2022-10-25T10:51:44.383Z,17.74
2022-10-25T10:52:40.753Z,17.79
2022-10-25T10:53:40.742Z,17.79
2022-10-25T10:54:40.730Z,17.82
2022-10-25T10:55:40.719Z,17.79
2022-10-25T10:56:40.726Z,17.71
2022-10-25T10:57:40.709Z,17.73
2022-10-25T10:58:40.721Z,17.73
2022-10-25T10:59:40.695Z,17.87
2022-10-25T11:00:40.670Z,17.88
2022-10-25T11:01:40.861Z,18.00
2022-10-25T11:02:40.957Z,18.03
2022-10-25T11:03:48.656Z,18.09
2022-10-25T11:04:41.623Z,18.10
2022-10-25T11:05:40.609Z,18.09
2022-10-25T11:06:40.671Z,18.19
2022-10-25T11:07:40.621Z,18.17
2022-10-25T11:08:40.579Z,18.31
2022-10-25T11:09:40.571Z,18.19
2022-10-25T11:10:40.602Z,18.33
2022-10-25T11:11:40.559Z,18.25
2022-10-25T11:12:41.371Z,18.42
2022-10-25T11:13:40.528Z,18.49
2022-10-25T11:14:40.518Z,18.55
2022-10-25T11:15:40.505Z,18.52
2022-10-25T11:16:40.507Z,18.57
2022-10-25T11:17:40.597Z,18.54
2022-10-25T11:18:40.472Z,18.68
2022-10-25T11:19:40.471Z,18.61
2022-10-25T11:20:40.526Z,18.77
2022-10-25T11:21:40.451Z,18.72
2022-10-25T11:22:40.491Z,18.73
2022-10-25T11:23:40.422Z,18.76
2022-10-25T11:24:40.411Z,18.86
2022-10-25T11:25:40.399Z,18.91
2022-10-25T11:26:40.403Z,19.06
2022-10-25T11:27:40.377Z,19.11
2022-10-25T11:28:40.369Z,19.06
2022-10-25T11:29:40.380Z,19.05
2022-10-25T11:30:40.350Z,19.17
2022-10-25T11:31:40.350Z,19.20
2022-10-25T11:32:40.333Z,19.13
2022-10-25T11:33:40.428Z,19.13
2022-10-25T11:34:40.393Z,19.18
2022-10-25T11:35:40.293Z,19.20
2022-10-25T11:36:40.304Z,19.29
2022-10-25T11:37:40.277Z,19.25
2022-10-25T11:38:40.265Z,19.32
2022-10-25T11:39:41.248Z,19.36
2022-10-25T11:40:40.250Z,19.29
2022-10-25T11:41:40.254Z,19.35
2022-10-25T11:42:40.222Z,19.25
2022-10-25T11:43:40.210Z,19.33
2022-10-25T11:44:42.953Z,19.31
2022-10-25T11:45:41.240Z,19.39
2022-10-25T11:46:40.195Z,19.28
2022-10-25T11:47:43.455Z,19.39
2022-10-25T11:48:40.161Z,19.40
2022-10-25T11:49:40.274Z,19.35
2022-10-25T11:50:40.139Z,19.32
2022-10-25T11:51:40.139Z,19.33
2022-10-25T11:52:40.117Z,19.29
2022-10-25T11:53:40.106Z,19.28
2022-10-25T11:54:40.101Z,19.23
2022-10-25T11:55:40.177Z,19.17
2022-10-25T11:56:40.095Z,19.20
2022-10-25T11:57:40.065Z,19.24
2022-10-25T11:58:40.059Z,19.20
2022-10-25T11:59:40.044Z,19.28
2022-10-25T12:00:40.205Z,19.31
2022-10-25T12:01:40.107Z,19.25
2022-10-25T12:02:40.089Z,19.20
2022-10-25T12:03:40.002Z,19.20
2022-10-25T12:04:39.995Z,19.20
2022-10-25T12:05:40.126Z,19.20
2022-10-25T12:06:39.981Z,19.20
2022-10-25T12:07:39.959Z,19.14
2022-10-25T12:08:39.953Z,19.10
2022-10-25T12:09:39.938Z,19.23
2022-10-25T12:10:39.999Z,19.21
2022-10-25T12:11:39.933Z,19.14
2022-10-25T12:12:39.910Z,19.06
2022-10-25T12:13:39.897Z,19.13
2022-10-25T12:14:39.890Z,19.08
2022-10-25T12:15:39.877Z,19.06
2022-10-25T12:16:39.873Z,18.92
2022-10-25T12:17:39.862Z,19.01
2022-10-25T12:18:39.847Z,18.84
2022-10-25T12:19:39.835Z,18.92
2022-10-25T12:20:39.827Z,18.68
2022-10-25T12:21:39.950Z,18.73
2022-10-25T12:22:39.803Z,18.73
2022-10-25T12:23:39.801Z,18.67
2022-10-25T12:24:39.779Z,18.57
2022-10-25T12:25:39.854Z,18.58
2022-10-25T12:26:39.776Z,18.57
2022-10-25T12:27:39.752Z,18.57
2022-10-25T12:28:39.738Z,18.57
2022-10-25T12:29:39.729Z,18.55
2022-10-25T12:30:39.716Z,18.58
2022-10-25T12:31:39.715Z,18.55
2022-10-25T12:32:39.694Z,18.54
2022-10-25T12:33:39.684Z,18.54
2022-10-25T12:34:39.674Z,18.47
2022-10-25T12:35:40.320Z,18.46
2022-10-25T12:36:39.659Z,18.43
2022-10-25T12:37:39.758Z,18.43
2022-10-25T12:38:39.633Z,18.46
2022-10-25T12:39:39.617Z,18.46
2022-10-25T12:40:41.542Z,18.39
2022-10-25T12:41:39.605Z,18.39
2022-10-25T12:42:39.585Z,18.47
2022-10-25T12:43:39.581Z,18.44
2022-10-25T12:44:39.567Z,18.33
2022-10-25T12:45:39.554Z,18.34
2022-10-25T12:46:39.558Z,18.37
2022-10-25T12:47:39.535Z,18.25
2022-10-25T12:48:39.522Z,18.28
2022-10-25T12:49:39.511Z,18.29
2022-10-25T12:50:39.500Z,18.31
2022-10-25T12:51:39.503Z,18.31
2022-10-25T12:52:39.496Z,18.19
2022-10-25T12:53:39.663Z,18.28
2022-10-25T12:54:39.455Z,18.24